URKCB ZZZZ-UKLL
Flight info
| Callsign | URKCB |
|---|---|
| Flight time | N/A |
| Altitude | 2500 |
| Route | DCT UKLLC |
| Aircraft | C208/L-SDE3FGHIRWY/LB1D1 |
Departure
| Time | N/A |
|---|---|
| Airport | ZZZZ |
Arrival
| Time | 2026-04-22 18:20 |
|---|---|
| Airport | Lviv International Airport (UKLL) |
| Time | Latitude | Longitude | Altitude | Speed | Heading |
|---|---|---|---|---|---|
| 2026-04-22 17:53 | 49.36436 | 23.56764 | 909 ft | 0 kts | 301° |
| 2026-04-22 17:58 | 49.36437 | 23.56761 | 906 ft | 2 kts | 303° |
| 2026-04-22 17:58 | 49.36463 | 23.56699 | 910 ft | 11 kts | 302° |
| 2026-04-22 17:59 | 49.36490 | 23.56602 | 910 ft | 12 kts | 238° |
| 2026-04-22 17:59 | 49.36402 | 23.56525 | 910 ft | 10 kts | 214° |
| 2026-04-22 17:59 | 49.36409 | 23.56511 | 910 ft | 0 kts | 33° |
| 2026-04-22 18:00 | 49.36420 | 23.56522 | 909 ft | 16 kts | 32° |
| 2026-04-22 18:00 | 49.36832 | 23.56935 | 949 ft | 79 kts | 29° |
| 2026-04-22 18:00 | 49.37317 | 23.57444 | 1181 ft | 85 kts | 30° |
| 2026-04-22 18:00 | 49.37776 | 23.57956 | 1521 ft | 81 kts | 30° |
| 2026-04-22 18:01 | 49.38250 | 23.58468 | 1773 ft | 92 kts | 26° |
| 2026-04-22 18:01 | 49.38819 | 23.59073 | 1949 ft | 110 kts | 31° |
| 2026-04-22 18:01 | 49.39445 | 23.59808 | 2133 ft | 114 kts | 25° |
| 2026-04-22 18:01 | 49.40086 | 23.60543 | 2274 ft | 116 kts | 26° |
| 2026-04-22 18:02 | 49.40745 | 23.61287 | 2424 ft | 119 kts | 26° |
| 2026-04-22 18:02 | 49.41439 | 23.62067 | 2500 ft | 130 kts | 27° |
| 2026-04-22 18:02 | 49.42199 | 23.62904 | 2508 ft | 138 kts | 25° |
| 2026-04-22 18:02 | 49.43023 | 23.63709 | 2506 ft | 144 kts | 24° |
| 2026-04-22 18:03 | 49.43869 | 23.64563 | 2515 ft | 146 kts | 25° |
| 2026-04-22 18:03 | 49.44726 | 23.65422 | 2512 ft | 149 kts | 25° |
| 2026-04-22 18:03 | 49.45604 | 23.66297 | 2504 ft | 152 kts | 25° |
| 2026-04-22 18:03 | 49.46487 | 23.67172 | 2502 ft | 150 kts | 24° |
| 2026-04-22 18:04 | 49.47357 | 23.68024 | 2484 ft | 148 kts | 24° |
| 2026-04-22 18:04 | 49.48231 | 23.68892 | 2486 ft | 151 kts | 25° |
| 2026-04-22 18:04 | 49.49112 | 23.69770 | 2484 ft | 151 kts | 25° |
| 2026-04-22 18:04 | 49.50004 | 23.70654 | 2481 ft | 153 kts | 25° |
| 2026-04-22 18:05 | 49.50891 | 23.71531 | 2473 ft | 150 kts | 25° |
| 2026-04-22 18:05 | 49.51762 | 23.72396 | 2469 ft | 148 kts | 25° |
| 2026-04-22 18:05 | 49.52618 | 23.73243 | 2469 ft | 149 kts | 25° |
| 2026-04-22 18:05 | 49.53498 | 23.74104 | 2469 ft | 150 kts | 25° |
| 2026-04-22 18:06 | 49.54386 | 23.74972 | 2466 ft | 151 kts | 25° |
| 2026-04-22 18:06 | 49.55265 | 23.75839 | 2464 ft | 149 kts | 24° |
| 2026-04-22 18:06 | 49.56127 | 23.76720 | 2475 ft | 149 kts | 25° |
| 2026-04-22 18:06 | 49.56989 | 23.77635 | 2467 ft | 150 kts | 26° |
| 2026-04-22 18:07 | 49.57848 | 23.78559 | 2475 ft | 151 kts | 26° |
| 2026-04-22 18:07 | 49.58707 | 23.79483 | 2477 ft | 150 kts | 26° |
| 2026-04-22 18:07 | 49.59569 | 23.80398 | 2477 ft | 151 kts | 26° |
| 2026-04-22 18:07 | 49.60441 | 23.81314 | 2467 ft | 151 kts | 26° |
| 2026-04-22 18:08 | 49.61297 | 23.82259 | 2469 ft | 152 kts | 28° |
| 2026-04-22 18:08 | 49.62136 | 23.83260 | 2469 ft | 152 kts | 28° |
| 2026-04-22 18:08 | 49.62969 | 23.84256 | 2468 ft | 151 kts | 29° |
| 2026-04-22 18:08 | 49.63796 | 23.85245 | 2467 ft | 151 kts | 29° |
| 2026-04-22 18:09 | 49.64604 | 23.86298 | 2466 ft | 154 kts | 33° |
| 2026-04-22 18:09 | 49.65222 | 23.87499 | 2442 ft | 140 kts | 66° |
| 2026-04-22 18:09 | 49.65042 | 23.88878 | 2391 ft | 132 kts | 130° |
| 2026-04-22 18:09 | 49.64286 | 23.89361 | 2277 ft | 115 kts | 201° |
| 2026-04-22 18:10 | 49.63779 | 23.88665 | 2387 ft | 94 kts | 269° |
| 2026-04-22 18:10 | 49.64049 | 23.87853 | 2472 ft | 98 kts | 330° |
| 2026-04-22 18:10 | 49.64782 | 23.87997 | 2479 ft | 126 kts | 25° |
| 2026-04-22 18:10 | 49.65325 | 23.89188 | 2476 ft | 141 kts | 53° |
| 2026-04-22 18:11 | 49.65818 | 23.90468 | 2475 ft | 138 kts | 42° |
| 2026-04-22 18:11 | 49.66419 | 23.91636 | 2472 ft | 141 kts | 41° |
| 2026-04-22 18:11 | 49.67057 | 23.92781 | 2466 ft | 140 kts | 39° |
| 2026-04-22 18:11 | 49.67689 | 23.93911 | 2464 ft | 141 kts | 46° |
| 2026-04-22 18:12 | 49.67921 | 23.95451 | 2449 ft | 157 kts | 90° |
| 2026-04-22 18:12 | 49.67451 | 23.96968 | 2455 ft | 162 kts | 136° |
| 2026-04-22 18:12 | 49.66830 | 23.97580 | 2447 ft | 159 kts | 164° |
| 2026-04-22 18:12 | 49.65546 | 23.97577 | 2452 ft | 123 kts | 212° |
| 2026-04-22 18:13 | 49.64915 | 23.96831 | 2445 ft | 108 kts | 245° |
| 2026-04-22 18:13 | 49.64678 | 23.95851 | 2453 ft | 93 kts | 275° |
| 2026-04-22 18:13 | 49.64868 | 23.94966 | 2451 ft | 88 kts | 311° |
| 2026-04-22 18:13 | 49.65399 | 23.94496 | 2453 ft | 92 kts | 341° |
| 2026-04-22 18:14 | 49.66058 | 23.94592 | 2456 ft | 101 kts | 11° |
| 2026-04-22 18:14 | 49.66635 | 23.95276 | 2459 ft | 111 kts | 42° |
| 2026-04-22 18:14 | 49.67095 | 23.96242 | 2459 ft | 111 kts | 38° |
| 2026-04-22 18:14 | 49.67627 | 23.97221 | 2478 ft | 132 kts | 38° |
| 2026-04-22 18:15 | 49.68282 | 23.98377 | 2483 ft | 153 kts | 39° |
| 2026-04-22 18:15 | 49.69019 | 23.99627 | 2473 ft | 160 kts | 39° |
| 2026-04-22 18:15 | 49.69792 | 24.00858 | 2470 ft | 158 kts | 31° |
| 2026-04-22 18:15 | 49.70671 | 24.01798 | 2470 ft | 154 kts | 23° |
| 2026-04-22 18:16 | 49.71589 | 24.02654 | 2471 ft | 153 kts | 23° |
| 2026-04-22 18:16 | 49.72489 | 24.03494 | 2388 ft | 151 kts | 23° |
| 2026-04-22 18:16 | 49.73405 | 24.04291 | 2264 ft | 151 kts | 17° |
| 2026-04-22 18:16 | 49.74356 | 24.04583 | 2128 ft | 125 kts | 345° |
| 2026-04-22 18:17 | 49.75082 | 24.04137 | 2023 ft | 101 kts | 329° |
| 2026-04-22 18:17 | 49.75641 | 24.03587 | 1923 ft | 92 kts | 323° |
| 2026-04-22 18:17 | 49.76135 | 24.02985 | 1841 ft | 91 kts | 317° |
| 2026-04-22 18:17 | 49.76608 | 24.02321 | 1791 ft | 93 kts | 316° |
| 2026-04-22 18:18 | 49.77099 | 24.01649 | 1704 ft | 94 kts | 319° |
| 2026-04-22 18:18 | 49.77537 | 24.01022 | 1665 ft | 78 kts | 314° |
| 2026-04-22 18:18 | 49.77905 | 24.00397 | 1598 ft | 83 kts | 313° |
| 2026-04-22 18:18 | 49.78351 | 23.99746 | 1481 ft | 92 kts | 315° |
| 2026-04-22 18:19 | 49.78814 | 23.99070 | 1416 ft | 91 kts | 313° |
| 2026-04-22 18:19 | 49.79265 | 23.98386 | 1310 ft | 91 kts | 314° |
| 2026-04-22 18:19 | 49.79727 | 23.97705 | 1185 ft | 92 kts | 315° |
| 2026-04-22 18:19 | 49.80187 | 23.97022 | 1080 ft | 92 kts | 313° |
| 2026-04-22 18:20 | 49.80613 | 23.96377 | 1065 ft | 79 kts | 314° |
| 2026-04-22 18:20 | 49.80982 | 23.95826 | 1062 ft | 68 kts | 315° |
| 2026-04-22 18:20 | 49.81234 | 23.95449 | 1065 ft | 31 kts | 314° |
| 2026-04-22 18:20 | 49.81358 | 23.95457 | 1064 ft | 19 kts | 45° |
| 2026-04-22 18:21 | 49.81447 | 23.95461 | 1064 ft | 10 kts | 334° |
| 2026-04-22 18:21 | 49.81459 | 23.95451 | 1064 ft | 0 kts | 328° |
| 2026-04-22 18:24 | 49.81488 | 23.95409 | 1064 ft | 13 kts | 316° |
| 2026-04-22 18:24 | 49.81709 | 23.95076 | 1064 ft | 22 kts | 315° |
| 2026-04-22 18:25 | 49.81808 | 23.94988 | 1064 ft | 16 kts | 47° |
| 2026-04-22 18:25 | 49.81768 | 23.95073 | 1064 ft | 0 kts | 160° |